Kezdőlap
METAR-TAF:

METAR-TAF

Repülőterek :

Craig, Colorado, Amerikai Egyesült Államok

földrajzi szélesség: 40-29-36N, földrajzi hosszúság: 107-31-25W, magasság: 1888 m

Jelenlegi meteorológiai megfigyelések

A jelentés 26 perccel ezelõtt készült, 23:53 UTC
Északi szél 8 kt, nyugat-északnyugati és északkeleti között változik
Hőmérséklet 11°C
Páratartalom 28%
Légköri nyomás 1018 hPa
Látótávolság: 16.1 km
Derült ég

METAR: KCAG 182353Z AUTO 01008KT 290V050 10SM CLR 11/M07 A3005 RMK AO2 SLP172 T01111067 10122 20067 56015

Idő: 18:19 (00:19 UTC)


TAF: hiányzik

Meteorológiai megfigyelések és előrejelzések több, mint 4000 repülőtéren (METAR és TAF jelentéseket).

A térképen piros és sárga pontok jelzik az elérhető meteorológiai állomásokat.

Mozgassa az egeret a pont fölött, hogy megjelenjen az állomás neve.

Azután kattintson az időjárási megfigyelések és előrejelzések megtekintéséhez.

A térkép megváltoztatása: kattintson a fekete keresztel jelölt zöld gombra ráközelítéshez, a vonallal jelölt zöld gombra távolításhoz, vagy a zöld nyilakra a szomszédos térképek eléréséhez.


METAR-TAF: